Time;durP1;ratioP1;P1;durP2;ratioP2;P2;SDS_P1;SDS_P2;PMS_P1;PMS_P2;Temp;Humidity;BMP_temperature;BMP_pressure;BME280_temperature;BME280_humidity;BME280_pressure;Samples;Min_cycle;Max_cycle;Signal;HPM_P1;HPM_P2
2024/01/04 06:00:51;;;;;;;2.65;0.60;;;7.30;92.00;;;;;;4737456;23;20061;-79
2024/01/04 06:02:53;;;;;;;3.92;0.70;;;7.30;91.90;;;;;;4114808;28;20114;-79
2024/01/04 06:04:55;;;;;;;3.15;0.65;;;7.30;92.00;;;;;;4104634;28;20106;-79
2024/01/04 06:06:57;;;;;;;2.85;0.68;;;7.30;92.10;;;;;;4102804;29;20452;-80
2024/01/04 06:08:58;;;;;;;3.03;0.57;;;7.30;91.80;;;;;;4102681;29;20488;-80
2024/01/04 06:11:00;;;;;;;2.00;0.40;;;7.30;91.80;;;;;;4102628;29;20051;-80
2024/01/04 06:13:02;;;;;;;3.28;0.70;;;7.30;91.40;;;;;;4102565;29;20055;-79
2024/01/04 06:15:05;;;;;;;1.85;0.50;;;7.30;91.30;;;;;;4103352;28;20048;-80
2024/01/04 06:17:07;;;;;;;3.80;0.68;;;7.30;91.20;;;;;;4102434;28;20098;-80
2024/01/04 06:19:09;;;;;;;2.35;0.60;;;7.30;91.30;;;;;;4102518;29;20055;-80
2024/01/04 06:21:11;;;;;;;2.95;0.65;;;7.30;91.20;;;;;;4102363;29;20051;-79
2024/01/04 06:23:13;;;;;;;4.90;0.70;;;7.40;91.40;;;;;;4102276;29;20492;-80
2024/01/04 06:25:15;;;;;;;2.80;0.57;;;7.30;91.40;;;;;;4116455;28;20051;-78
2024/01/04 06:27:16;;;;;;;3.38;0.60;;;7.40;91.30;;;;;;4118683;28;20047;-79
2024/01/04 06:29:18;;;;;;;4.32;0.90;;;7.40;91.00;;;;;;4107664;28;20490;-79
2024/01/04 06:31:19;;;;;;;4.22;0.90;;;7.40;91.20;;;;;;4118048;28;20089;-79
2024/01/04 06:33:23;;;;;;;4.35;0.65;;;7.40;91.00;;;;;;4118054;28;20043;-79
2024/01/04 06:35:23;;;;;;;4.50;0.80;;;7.40;91.00;;;;;;4103162;28;20086;-81
2024/01/04 06:37:25;;;;;;;3.97;1.08;;;7.50;90.80;;;;;;4102147;29;20054;-79
2024/01/04 06:39:28;;;;;;;5.00;1.17;;;7.50;90.70;;;;;;4102140;29;20456;-80
2024/01/04 06:41:30;;;;;;;5.40;0.90;;;7.40;90.40;;;;;;4102215;29;20405;-80
2024/01/04 06:43:32;;;;;;;4.13;0.77;;;7.50;90.70;;;;;;4102366;28;20473;-76
2024/01/04 06:45:33;;;;;;;3.65;0.73;;;7.40;90.70;;;;;;4118071;28;20122;-78
2024/01/04 06:47:35;;;;;;;3.58;0.90;;;7.40;90.80;;;;;;4117884;28;20051;-79
2024/01/04 06:49:38;;;;;;;4.32;0.93;;;7.40;90.40;;;;;;4117082;28;20043;-79
2024/01/04 06:51:40;;;;;;;6.45;0.80;;;7.40;90.60;;;;;;4117101;28;20094;-79
2024/01/04 06:53:42;;;;;;;3.58;0.95;;;7.40;90.60;;;;;;4116314;28;20101;-79
2024/01/04 06:55:44;;;;;;;3.53;0.70;;;7.50;90.40;;;;;;4116027;28;20094;-79
2024/01/04 06:57:46;;;;;;;2.55;0.90;;;7.40;90.30;;;;;;4117930;28;20508;-78
2024/01/04 06:59:48;;;;;;;4.60;0.90;;;7.40;90.50;;;;;;4117766;28;20138;-81
2024/01/04 07:01:50;;;;;;;2.22;0.60;;;7.50;90.30;;;;;;4099753;29;20118;-81
2024/01/04 07:03:52;;;;;;;7.40;0.90;;;7.50;90.30;;;;;;4117349;28;20047;-78
2024/01/04 07:05:55;;;;;;;4.50;0.70;;;7.50;90.20;;;;;;4117698;28;20484;-79
2024/01/04 07:07:57;;;;;;;6.07;0.90;;;7.40;90.30;;;;;;4117611;28;20046;-79
2024/01/04 07:09:59;;;;;;;4.72;1.00;;;7.50;90.10;;;;;;4113002;28;20117;-80
2024/01/04 07:12:01;;;;;;;4.72;1.00;;;7.40;90.10;;;;;;4101536;29;20078;-79
2024/01/04 07:14:03;;;;;;;7.30;1.00;;;7.50;90.30;;;;;;4101393;28;20047;-79
2024/01/04 07:16:05;;;;;;;5.47;1.10;;;7.50;90.40;;;;;;4101694;29;20081;-79
2024/01/04 07:18:07;;;;;;;5.90;0.98;;;7.50;90.30;;;;;;4101441;29;20055;-81
2024/01/04 07:20:10;;;;;;;4.68;0.75;;;7.50;90.20;;;;;;4110599;28;20132;-78
2024/01/04 07:22:15;;;;;;;8.20;1.20;;;7.50;90.30;;;;;;4117446;28;20488;-79
2024/01/04 07:24:17;;;;;;;5.60;1.13;;;7.50;90.30;;;;;;4117251;28;20101;-80
2024/01/04 07:26:19;;;;;;;4.38;0.80;;;7.50;90.20;;;;;;4104606;28;20481;-79
2024/01/04 07:28:20;;;;;;;4.38;0.90;;;7.50;90.20;;;;;;4101512;29;20051;-83
2024/01/04 07:30:22;;;;;;;3.40;0.80;;;7.50;90.30;;;;;;4102089;28;20106;-84
2024/01/04 07:32:24;;;;;;;4.05;0.85;;;7.50;90.30;;;;;;4110792;28;20061;-82
2024/01/04 07:34:27;;;;;;;2.92;0.70;;;7.50;90.30;;;;;;4117085;28;20050;-81
2024/01/04 07:36:29;;;;;;;3.58;0.60;;;7.50;90.40;;;;;;4116963;28;20058;-80
2024/01/04 07:38:34;;;;;;;2.53;0.60;;;7.50;90.20;;;;;;4117210;28;20047;-80
2024/01/04 07:40:37;;;;;;;4.35;1.02;;;7.50;89.90;;;;;;4108061;28;20078;-80
2024/01/04 07:42:38;;;;;;;4.57;0.70;;;7.50;89.80;;;;;;4112109;28;20058;-80
2024/01/04 07:44:40;;;;;;;4.07;0.77;;;7.50;89.40;;;;;;4116541;28;20085;-80
2024/01/04 07:46:42;;;;;;;3.20;0.75;;;7.60;89.20;;;;;;4117763;28;20039;-78
2024/01/04 07:48:45;;;;;;;4.15;0.80;;;7.50;88.80;;;;;;4117107;28;20046;-77
2024/01/04 07:50:47;;;;;;;6.78;1.13;;;7.50;89.00;;;;;;4116472;28;20452;-77
2024/01/04 07:52:50;;;;;;;4.45;1.00;;;7.60;88.90;;;;;;4121685;28;20113;-76
2024/01/04 07:54:53;;;;;;;2.80;0.60;;;7.50;88.70;;;;;;4127330;28;20505;-76
2024/01/04 07:56:56;;;;;;;3.15;0.73;;;7.50;88.90;;;;;;4127619;28;20479;-77
2024/01/04 07:58:58;;;;;;;3.95;0.90;;;7.50;88.80;;;;;;4132199;28;20042;-78
2024/01/04 08:01:01;;;;;;;8.93;2.28;;;7.50;88.50;;;;;;4131018;28;20058;-79
2024/01/04 08:03:03;;;;;;;4.45;0.80;;;7.50;88.10;;;;;;4133037;28;20046;-77
2024/01/04 08:05:06;;;;;;;6.57;2.55;;;7.50;87.80;;;;;;4133030;28;20526;-77
2024/01/04 08:07:08;;;;;;;2.35;0.60;;;7.50;87.90;;;;;;4131115;28;20129;-81
2024/01/04 08:09:11;;;;;;;8.10;2.40;;;7.50;87.70;;;;;;4130331;28;20101;-79
2024/01/04 08:11:14;;;;;;;4.13;0.82;;;7.50;87.40;;;;;;4118529;28;20053;-79
2024/01/04 08:13:16;;;;;;;5.55;1.10;;;7.60;87.20;;;;;;4116588;28;20101;-80
2024/01/04 08:15:18;;;;;;;4.80;0.68;;;7.50;87.10;;;;;;4131078;28;20553;-80
2024/01/04 08:17:20;;;;;;;4.53;0.93;;;7.50;86.70;;;;;;4121404;28;20121;-79
2024/01/04 08:19:21;;;;;;;6.82;1.23;;;7.60;87.00;;;;;;4117204;28;20042;-80
2024/01/04 08:21:23;;;;;;;4.10;0.90;;;7.60;86.80;;;;;;4132340;28;20073;-80
2024/01/04 08:23:25;;;;;;;3.08;0.70;;;7.60;86.70;;;;;;4132481;28;20050;-80
2024/01/04 08:25:27;;;;;;;5.53;0.85;;;7.60;86.20;;;;;;4132888;28;20546;-78
2024/01/04 08:27:31;;;;;;;5.57;1.00;;;7.60;86.40;;;;;;4124557;28;20125;-79
2024/01/04 08:29:33;;;;;;;4.13;1.08;;;7.50;86.30;;;;;;4126695;28;20046;-77
2024/01/04 08:31:36;;;;;;;3.95;0.80;;;7.50;86.30;;;;;;4127476;28;20058;-79
2024/01/04 08:33:38;;;;;;;5.35;1.08;;;7.50;86.00;;;;;;4129932;28;20495;-78
2024/01/04 08:35:39;;;;;;;4.22;0.90;;;7.50;86.30;;;;;;4121896;28;20114;-79
2024/01/04 08:37:42;;;;;;;2.67;0.90;;;7.50;85.80;;;;;;4131346;28;20046;-76
2024/01/04 08:39:43;;;;;;;3.60;0.90;;;7.50;85.80;;;;;;4126208;28;20058;-80
2024/01/04 08:41:45;;;;;;;2.50;0.70;;;7.50;85.90;;;;;;4122657;28;20046;-81
2024/01/04 08:43:48;;;;;;;4.07;0.70;;;7.60;85.90;;;;;;4132378;28;20101;-80
2024/01/04 08:45:51;;;;;;;3.53;0.70;;;7.50;85.80;;;;;;4124739;28;20050;-80
2024/01/04 08:47:53;;;;;;;3.28;1.00;;;7.60;86.10;;;;;;4116497;28;20129;-80
2024/01/04 08:49:58;;;;;;;3.08;1.00;;;7.70;86.40;;;;;;4116171;28;20101;-79
2024/01/04 08:52:01;;;;;;;2.65;0.60;;;7.70;86.60;;;;;;4116469;28;20192;-78
2024/01/04 08:54:02;;;;;;;4.97;0.95;;;7.70;86.50;;;;;;4122084;28;20149;-80
2024/01/04 08:56:08;;;;;;;6.20;0.93;;;7.80;86.50;;;;;;4132239;28;20050;-78
2024/01/04 08:58:10;;;;;;;4.55;0.75;;;7.80;86.40;;;;;;4126776;28;20050;-77
2024/01/04 09:00:15;;;;;;;4.18;0.90;;;7.80;86.20;;;;;;4130881;28;20042;-79
2024/01/04 09:02:17;;;;;;;5.10;1.20;;;7.90;86.50;;;;;;4131285;28;20389;-78
2024/01/04 09:04:20;;;;;;;4.65;1.02;;;7.90;86.30;;;;;;4131620;28;20113;-80
2024/01/04 09:06:23;;;;;;;8.60;1.25;;;7.90;86.10;;;;;;4126631;28;20053;-78
2024/01/04 09:08:24;;;;;;;5.68;1.10;;;7.90;85.60;;;;;;4120365;28;20051;-81
2024/01/04 09:10:25;;;;;;;5.90;1.02;;;8.00;85.30;;;;;;4124934;28;20049;-79
2024/01/04 09:12:28;;;;;;;6.88;1.15;;;8.00;85.20;;;;;;4125870;28;20108;-80
2024/01/04 09:14:30;;;;;;;5.57;1.02;;;8.10;84.90;;;;;;4119504;28;20468;-81
2024/01/04 09:16:34;;;;;;;6.43;1.00;;;8.10;85.00;;;;;;4125302;28;20046;-79
2024/01/04 09:18:39;;;;;;;5.60;0.93;;;8.20;84.90;;;;;;4127939;28;20070;-80
2024/01/04 09:20:40;;;;;;;4.13;1.03;;;8.20;84.00;;;;;;4121206;28;20047;-82
2024/01/04 09:22:42;;;;;;;5.40;1.35;;;8.20;84.00;;;;;;4119331;28;20057;-78
2024/01/04 09:24:45;;;;;;;7.45;1.27;;;8.30;84.30;;;;;;4122121;28;20101;-77
2024/01/04 09:26:48;;;;;;;5.65;1.40;;;8.40;83.90;;;;;;4132996;28;20129;-78
2024/01/04 09:28:48;;;;;;;6.80;1.30;;;8.30;84.10;;;;;;4132146;28;20110;-78
2024/01/04 09:30:50;;;;;;;6.75;1.50;;;8.20;85.60;;;;;;4120545;28;20444;-80
2024/01/04 09:32:54;;;;;;;6.03;1.10;;;8.10;88.50;;;;;;4126236;28;20053;-81
2024/01/04 09:34:54;;;;;;;5.30;1.20;;;8.00;90.00;;;;;;4132062;28;20133;-80
2024/01/04 09:36:56;;;;;;;8.10;1.38;;;7.90;90.60;;;;;;4134464;28;20046;-80
2024/01/04 09:38:58;;;;;;;5.97;1.20;;;7.80;90.30;;;;;;4133493;28;20070;-79
2024/01/04 09:41:12;;;;;;;5.38;1.08;;;7.80;90.30;;;;;;4134080;28;20096;-80
2024/01/04 09:43:17;;;;;;;4.85;0.98;;;7.90;90.10;;;;;;4133432;28;20050;-80
2024/01/04 09:45:22;;;;;;;7.05;1.02;;;7.90;89.30;;;;;;4121975;28;20098;-81
2024/01/04 09:47:24;;;;;;;6.53;1.10;;;8.00;88.00;;;;;;4123964;28;20599;-78
2024/01/04 09:49:29;;;;;;;5.20;0.90;;;7.90;88.90;;;;;;4135372;28;20050;-76
2024/01/04 09:51:33;;;;;;;6.13;1.17;;;8.00;87.30;;;;;;4135873;28;20096;-79
2024/01/04 09:53:37;;;;;;;6.15;1.33;;;8.00;87.50;;;;;;4132625;28;20050;-77
2024/01/04 09:55:40;;;;;;;5.78;1.30;;;8.10;86.70;;;;;;4132350;28;20039;-75
2024/01/04 09:57:42;;;;;;;8.25;1.50;;;8.10;86.90;;;;;;4134806;28;20042;-80
2024/01/04 09:59:44;;;;;;;7.03;1.13;;;8.20;85.40;;;;;;4133035;28;20470;-78
2024/01/04 10:01:47;;;;;;;5.45;1.20;;;8.30;84.80;;;;;;4129775;28;20464;-78
2024/01/04 10:03:49;;;;;;;5.93;1.10;;;8.30;83.50;;;;;;4130678;28;20130;-76
2024/01/04 10:05:53;;;;;;;6.22;1.20;;;8.30;83.80;;;;;;4131244;28;20073;-79
2024/01/04 10:08:03;;;;;;;5.45;1.08;;;8.30;84.10;;;;;;4142013;28;20038;-77
2024/01/04 10:10:13;;;;;;;6.32;0.95;;;8.30;83.40;;;;;;4142476;28;20051;-81
2024/01/04 10:12:16;;;;;;;5.25;1.02;;;8.30;82.20;;;;;;4131876;28;20046;-79
2024/01/04 10:14:19;;;;;;;4.10;1.00;;;8.30;82.50;;;;;;4133287;28;20054;-77
2024/01/04 10:16:20;;;;;;;5.75;1.00;;;8.40;82.30;;;;;;4146070;28;20057;-80
2024/01/04 10:18:29;;;;;;;6.30;1.10;;;8.40;82.00;;;;;;4137173;28;20047;-75
2024/01/04 10:20:33;;;;;;;5.97;1.20;;;8.40;81.90;;;;;;4131234;28;20047;-74
2024/01/04 10:22:36;;;;;;;6.28;0.90;;;8.40;81.50;;;;;;4118600;28;20051;-77
2024/01/04 10:24:41;;;;;;;4.53;0.90;;;8.40;81.70;;;;;;4121623;28;20097;-76
2024/01/04 10:26:44;;;;;;;3.45;0.80;;;8.40;81.40;;;;;;4134767;28;20042;-77
2024/01/04 10:28:45;;;;;;;4.45;0.90;;;8.50;81.20;;;;;;4134489;28;20082;-75
2024/01/04 10:30:56;;;;;;;2.75;0.70;;;8.60;81.20;;;;;;4133576;28;20050;-76
2024/01/04 10:32:58;;;;;;;4.43;0.80;;;8.70;80.90;;;;;;4134055;28;20051;-77
2024/01/04 10:35:10;;;;;;;2.72;0.70;;;8.70;79.90;;;;;;4124784;28;20053;-78
2024/01/04 10:37:17;;;;;;;3.67;0.68;;;8.70;80.10;;;;;;4124047;28;20084;-76
2024/01/04 10:39:20;;;;;;;5.18;1.27;;;8.60;80.40;;;;;;4133432;28;20133;-77
2024/01/04 10:41:21;;;;;;;4.30;0.80;;;8.60;80.00;;;;;;4134066;28;20065;-80
2024/01/04 10:43:24;;;;;;;4.95;0.80;;;8.60;79.50;;;;;;4134720;28;20101;-86
2024/01/04 10:45:27;;;;;;;5.07;1.02;;;8.60;80.30;;;;;;4134485;28;20050;-80
2024/01/04 10:47:29;;;;;;;4.13;0.90;;;8.60;79.60;;;;;;4134606;28;20057;-84
2024/01/04 10:49:31;;;;;;;4.65;0.90;;;8.70;79.30;;;;;;4133835;28;20053;-81
2024/01/04 10:51:34;;;;;;;3.22;0.82;;;8.70;79.60;;;;;;4123349;28;20109;-81
2024/01/04 10:53:37;;;;;;;7.53;1.23;;;8.70;78.70;;;;;;4118252;28;20073;-82
2024/01/04 10:55:42;;;;;;;5.78;1.10;;;8.70;77.40;;;;;;4123068;28;20054;-80
2024/01/04 10:57:45;;;;;;;3.75;0.90;;;8.80;78.10;;;;;;4133934;28;20057;-81
2024/01/04 10:59:49;;;;;;;7.10;1.15;;;8.90;78.10;;;;;;4119100;28;20051;-80
2024/01/04 11:01:52;;;;;;;5.60;1.20;;;8.90;76.40;;;;;;4121638;28;20084;-78
2024/01/04 11:03:56;;;;;;;3.78;0.93;;;9.10;77.50;;;;;;4131009;28;20124;-80
2024/01/04 11:05:59;;;;;;;5.45;1.33;;;9.00;75.80;;;;;;4132484;28;20054;-79
2024/01/04 11:08:02;;;;;;;5.43;1.10;;;9.10;75.80;;;;;;4121473;28;20042;-79
2024/01/04 11:10:05;;;;;;;5.78;1.10;;;9.00;75.90;;;;;;4132965;28;20463;-79
2024/01/04 11:12:11;;;;;;;4.47;0.85;;;9.00;76.10;;;;;;4133048;28;20472;-79
2024/01/04 11:14:13;;;;;;;;;;;9.10;76.00;;;;;;4134041;28;20050;-79
2024/01/04 11:16:28;;;;;;;4.72;1.20;;;9.10;76.10;;;;;;4132761;28;19929;-84
2024/01/04 11:18:44;;;;;;;4.57;1.02;;;9.10;76.00;;;;;;4119868;28;20043;-80
2024/01/04 11:20:58;;;;;;;6.20;1.20;;;9.10;76.60;;;;;;4128761;28;20055;-83
2024/01/04 11:23:27;;;;;;;7.03;1.17;;;9.10;76.90;;;;;;4126180;28;20050;-80
2024/01/04 11:25:55;;;;;;;7.18;1.10;;;9.00;76.10;;;;;;4119740;28;20050;-80
2024/01/04 11:27:59;;;;;;;5.35;1.50;;;9.00;75.30;;;;;;4123228;28;20504;-83
2024/01/04 11:30:02;;;;;;;5.70;1.08;;;9.00;75.50;;;;;;4124297;28;20109;-80
2024/01/04 11:32:06;;;;;;;5.07;1.00;;;9.00;76.10;;;;;;4126856;28;20133;-78
2024/01/04 11:34:11;;;;;;;5.20;1.10;;;8.90;76.30;;;;;;4124144;28;20047;-79
2024/01/04 11:36:19;;;;;;;6.82;1.58;;;8.90;77.40;;;;;;4132924;28;20053;-78
2024/01/04 11:38:23;;;;;;;5.80;1.15;;;8.80;78.50;;;;;;4132996;28;20480;-80
2024/01/04 11:40:27;;;;;;;6.43;1.33;;;8.80;80.20;;;;;;4133570;28;20137;-76
2024/01/04 11:42:36;;;;;;;5.78;1.08;;;8.70;80.90;;;;;;4133133;28;20478;-78
2024/01/04 11:44:38;;;;;;;5.72;1.27;;;8.70;81.40;;;;;;4133332;28;20049;-79
2024/01/04 11:46:42;;;;;;;7.35;1.30;;;8.60;83.40;;;;;;4133284;28;20081;-80
2024/01/04 11:48:56;;;;;;;4.63;1.00;;;8.50;84.60;;;;;;4132332;28;20049;-78
2024/01/04 11:51:00;;;;;;;7.70;1.10;;;8.50;85.60;;;;;;4133243;28;20101;-78
2024/01/04 11:53:06;;;;;;;6.35;1.48;;;8.30;87.30;;;;;;4133110;28;20105;-78
2024/01/04 11:55:08;;;;;;;4.53;1.00;;;8.00;88.70;;;;;;4132778;28;20057;-78
2024/01/04 11:57:19;;;;;;;5.65;0.70;;;7.90;88.20;;;;;;4133002;28;20058;-79
2024/01/04 11:59:32;;;;;;;4.20;0.80;;;7.80;89.40;;;;;;4132803;28;20057;-79
2024/01/04 12:01:38;;;;;;;4.10;0.98;;;7.70;88.20;;;;;;4132775;28;20100;-79
2024/01/04 12:03:39;;;;;;;6.35;1.00;;;7.70;86.50;;;;;;4129547;28;20078;-78
2024/01/04 12:05:44;;;;;;;4.43;1.08;;;7.80;87.30;;;;;;4121054;28;20038;-79
2024/01/04 12:07:45;;;;;;;12.80;6.57;;;7.80;86.00;;;;;;4133133;28;20046;-77
2024/01/04 12:09:57;;;;;;;3.35;0.80;;;7.80;85.60;;;;;;4132592;28;20065;-79
2024/01/04 12:11:59;;;;;;;2.90;0.57;;;7.70;86.30;;;;;;4132838;28;20096;-78
2024/01/04 12:14:01;;;;;;;4.85;1.08;;;7.80;86.90;;;;;;4126145;28;20412;-78
2024/01/04 12:16:06;;;;;;;4.63;0.95;;;7.80;88.00;;;;;;4116737;28;20053;-79
2024/01/04 12:18:09;;;;;;;4.00;1.00;;;7.80;87.70;;;;;;4116724;28;20047;-79
2024/01/04 12:20:12;;;;;;;6.28;0.80;;;7.90;86.90;;;;;;4131781;28;20050;-79
2024/01/04 12:22:14;;;;;;;5.93;0.95;;;7.80;87.40;;;;;;4132828;28;20073;-78
2024/01/04 12:24:16;;;;;;;6.22;0.88;;;7.90;88.10;;;;;;4132615;28;20046;-80
2024/01/04 12:26:19;;;;;;;6.32;1.13;;;7.80;88.00;;;;;;4132563;28;20046;-80
2024/01/04 12:28:21;;;;;;;5.80;0.90;;;7.80;87.90;;;;;;4132821;28;20089;-80
2024/01/04 12:30:23;;;;;;;6.00;1.15;;;7.80;87.40;;;;;;4132694;28;20448;-79
2024/01/04 12:32:26;;;;;;;5.80;1.10;;;7.80;87.80;;;;;;4132749;28;20082;-80
2024/01/04 12:34:30;;;;;;;5.90;1.27;;;7.80;87.00;;;;;;4131396;28;20112;-78
2024/01/04 12:36:32;;;;;;;5.47;1.20;;;7.80;86.60;;;;;;4132420;28;20060;-79
2024/01/04 12:38:33;;;;;;;4.50;0.95;;;7.80;87.10;;;;;;4132392;28;20073;-80
2024/01/04 12:40:43;;;;;;;5.00;1.05;;;7.90;87.10;;;;;;4132385;28;20389;-80
2024/01/04 12:42:45;;;;;;;5.60;1.08;;;7.80;87.10;;;;;;4126597;28;20137;-79
2024/01/04 12:44:49;;;;;;;7.95;1.40;;;7.80;87.50;;;;;;4126549;28;20050;-79
2024/01/04 12:46:51;;;;;;;5.90;1.10;;;7.80;87.60;;;;;;4132182;28;20401;-80
2024/01/04 12:48:53;;;;;;;5.43;1.00;;;7.80;88.00;;;;;;4131866;28;20469;-80
2024/01/04 12:51:07;;;;;;;4.78;1.15;;;7.80;86.90;;;;;;4132467;28;20101;-80
2024/01/04 12:53:09;;;;;;;4.00;0.93;;;7.80;86.40;;;;;;4132223;28;20058;-77
2024/01/04 12:55:11;;;;;;;7.13;1.10;;;7.80;86.90;;;;;;4132265;28;20411;-77
2024/01/04 12:57:13;;;;;;;6.25;1.30;;;7.90;86.50;;;;;;4132438;28;20047;-80
2024/01/04 12:59:15;;;;;;;8.20;1.30;;;7.90;86.10;;;;;;4132317;28;20057;-79
2024/01/04 13:01:16;;;;;;;4.28;1.23;;;7.90;86.10;;;;;;4131459;28;20058;-80
2024/01/04 13:03:18;;;;;;;5.78;0.98;;;7.90;85.60;;;;;;4116392;28;20051;-80
2024/01/04 13:05:21;;;;;;;4.60;0.82;;;8.00;86.00;;;;;;4116459;28;20059;-80
2024/01/04 13:07:24;;;;;;;6.75;1.13;;;7.90;86.00;;;;;;4116041;28;20141;-80
2024/01/04 13:09:26;;;;;;;5.55;0.68;;;7.80;87.00;;;;;;4116286;28;20055;-81
2024/01/04 13:11:28;;;;;;;3.17;0.90;;;7.90;88.00;;;;;;4116277;28;20047;-80
2024/01/04 13:13:30;;;;;;;4.57;0.90;;;8.00;87.10;;;;;;4116044;28;20055;-80
2024/01/04 13:15:32;;;;;;;5.57;1.20;;;8.00;85.70;;;;;;4116049;28;20058;-79
2024/01/04 13:17:36;;;;;;;6.28;1.00;;;8.20;85.00;;;;;;4116202;28;20047;-80
2024/01/04 13:19:38;;;;;;;4.35;0.85;;;9.60;78.00;;;;;;4116041;28;20046;-80
2024/01/04 13:21:39;;;;;;;3.60;0.98;;;9.90;77.70;;;;;;4115922;28;20042;-78
2024/01/04 13:23:42;;;;;;;3.88;1.00;;;13.60;67.70;;;;;;4116003;28;20047;-80
2024/01/04 13:25:44;;;;;;;3.83;1.00;;;13.70;62.00;;;;;;4116210;28;20121;-78
2024/01/04 13:27:46;;;;;;;5.40;1.10;;;15.10;58.30;;;;;;4116467;28;20050;-78
2024/01/04 13:29:47;;;;;;;4.85;1.00;;;16.20;55.20;;;;;;4116523;28;20050;-80
2024/01/04 13:31:50;;;;;;;2.67;0.90;;;17.50;53.50;;;;;;4115965;28;20449;-79
2024/01/04 13:33:52;;;;;;;4.80;1.02;;;18.60;50.00;;;;;;4115838;28;20073;-79
2024/01/04 13:35:55;;;;;;;3.22;1.30;;;19.20;47.80;;;;;;4116000;28;20070;-79
2024/01/04 13:37:57;;;;;;;5.13;1.10;;;19.60;46.60;;;;;;4116017;28;20134;-77
2024/01/04 13:40:00;;;;;;;6.60;1.10;;;19.40;45.60;;;;;;4115877;28;20050;-78
2024/01/04 13:42:02;;;;;;;3.42;0.90;;;18.70;46.50;;;;;;4116152;28;20050;-76
2024/01/04 13:44:04;;;;;;;3.47;0.88;;;18.60;46.20;;;;;;4115960;28;20101;-77
2024/01/04 13:46:05;;;;;;;3.25;0.95;;;18.70;46.60;;;;;;4115835;28;20433;-77
2024/01/04 13:48:07;;;;;;;4.10;1.00;;;18.50;45.80;;;;;;4115920;28;20107;-77
2024/01/04 13:50:10;;;;;;;4.78;1.00;;;16.20;49.60;;;;;;4128137;28;20046;-77
2024/01/04 13:52:12;;;;;;;4.72;1.10;;;15.10;52.60;;;;;;4123560;28;20055;-79
2024/01/04 13:54:14;;;;;;;3.10;0.80;;;13.80;55.10;;;;;;4115883;28;20448;-79
2024/01/04 13:56:16;;;;;;;5.53;1.20;;;13.30;57.00;;;;;;4115846;28;20491;-80
2024/01/04 13:58:19;;;;;;;4.95;1.35;;;12.80;58.90;;;;;;4115936;28;20415;-77
2024/01/04 14:00:21;;;;;;;5.05;1.10;;;12.60;59.60;;;;;;4124869;28;20476;-78
2024/01/04 14:02:23;;;;;;;4.28;1.00;;;13.20;59.40;;;;;;4132884;28;20050;-78
2024/01/04 14:04:24;;;;;;;4.57;1.00;;;12.30;60.10;;;;;;4131904;28;20053;-78
2024/01/04 14:06:26;;;;;;;3.65;1.00;;;12.00;61.40;;;;;;4132597;28;20480;-80
2024/01/04 14:08:27;;;;;;;5.90;1.00;;;11.40;63.00;;;;;;4118554;28;20046;-78
2024/01/04 14:10:29;;;;;;;4.35;1.17;;;11.30;64.70;;;;;;4120479;28;20049;-79
2024/01/04 14:12:32;;;;;;;4.82;1.15;;;11.30;65.10;;;;;;4130633;28;20116;-79
2024/01/04 14:14:34;;;;;;;6.00;1.13;;;11.20;65.00;;;;;;4120162;28;20157;-79
2024/01/04 14:16:37;;;;;;;4.70;1.08;;;10.90;66.50;;;;;;4116402;28;20113;-79
2024/01/04 14:18:38;;;;;;;5.00;1.20;;;10.60;67.30;;;;;;4116388;28;20081;-80
2024/01/04 14:20:42;;;;;;;6.53;1.20;;;10.50;68.00;;;;;;4116550;28;20081;-80
2024/01/04 14:22:44;;;;;;;5.57;1.10;;;10.40;68.50;;;;;;4119868;28;20051;-80
2024/01/04 14:24:46;;;;;;;5.25;1.10;;;10.30;68.90;;;;;;4121822;28;20058;-79
2024/01/04 14:26:48;;;;;;;5.35;1.27;;;10.10;69.70;;;;;;4121451;28;20444;-79
2024/01/04 14:28:52;;;;;;;5.05;1.23;;;10.30;70.00;;;;;;4130209;28;20557;-76
2024/01/04 14:30:54;;;;;;;5.72;1.30;;;10.30;70.00;;;;;;4117962;28;20098;-75
2024/01/04 14:32:56;;;;;;;4.68;1.23;;;10.20;70.00;;;;;;4116055;28;20050;-78
2024/01/04 14:34:59;;;;;;;7.53;1.60;;;10.20;70.60;;;;;;4127358;28;20054;-78
2024/01/04 14:37:00;;;;;;;4.70;1.20;;;10.10;70.70;;;;;;4116326;28;20057;-79
2024/01/04 14:39:03;;;;;;;4.57;1.23;;;10.20;70.90;;;;;;4120943;28;20623;-79
2024/01/04 14:41:05;;;;;;;5.05;1.08;;;10.10;70.80;;;;;;4124634;28;20554;-79
2024/01/04 14:43:07;;;;;;;4.68;1.05;;;10.00;71.40;;;;;;4132158;28;20053;-80
2024/01/04 14:45:15;;;;;;;6.35;0.90;;;9.90;72.00;;;;;;4131946;28;20054;-79
2024/01/04 14:47:17;;;;;;;7.38;1.60;;;10.20;71.40;;;;;;4130870;28;20813;-81
2024/01/04 14:49:18;;;;;;;4.85;1.10;;;10.20;71.20;;;;;;4130814;28;20101;-80
2024/01/04 14:51:21;;;;;;;5.10;1.40;;;10.30;71.00;;;;;;4123061;28;20050;-80
2024/01/04 14:53:23;;;;;;;4.50;1.10;;;10.30;70.20;;;;;;4115829;28;20051;-81
2024/01/04 14:55:25;;;;;;;4.07;0.98;;;10.40;70.10;;;;;;4116996;28;20076;-80
2024/01/04 14:57:27;;;;;;;4.28;1.00;;;10.20;70.30;;;;;;4118495;28;20047;-80
2024/01/04 14:59:29;;;;;;;6.10;1.38;;;10.50;69.80;;;;;;4130074;28;20492;-80
2024/01/04 15:01:32;;;;;;;5.45;1.25;;;10.50;69.40;;;;;;4131451;28;20089;-82
2024/01/04 15:03:33;;;;;;;5.30;1.10;;;10.40;69.40;;;;;;4124945;28;20046;-81
2024/01/04 15:05:35;;;;;;;4.75;1.40;;;10.30;70.70;;;;;;4117478;28;20093;-79
2024/01/04 15:07:38;;;;;;;4.70;1.10;;;10.20;70.20;;;;;;4127740;28;20087;-80
2024/01/04 15:09:39;;;;;;;5.15;0.90;;;10.10;70.70;;;;;;4122753;28;20058;-82
2024/01/04 15:11:41;;;;;;;2.80;0.80;;;10.00;71.20;;;;;;4123971;28;20101;-79
2024/01/04 15:13:43;;;;;;;4.10;1.20;;;9.90;71.20;;;;;;4115805;28;20117;-78
2024/01/04 15:15:46;;;;;;;4.35;1.00;;;9.80;72.20;;;;;;4123611;28;20508;-80
2024/01/04 15:17:49;;;;;;;4.18;1.02;;;9.60;72.60;;;;;;4115299;28;20053;-75
2024/01/04 15:19:53;;;;;;;5.75;1.40;;;9.50;73.20;;;;;;4115386;28;20072;-76
2024/01/04 15:21:56;;;;;;;6.20;1.10;;;9.40;74.00;;;;;;4121242;28;20396;-74
2024/01/04 15:23:58;;;;;;;3.70;1.27;;;9.40;74.10;;;;;;4128588;28;20499;-78
2024/01/04 15:26:00;;;;;;;4.70;1.30;;;9.30;74.60;;;;;;4115155;28;20109;-77
2024/01/04 15:28:04;;;;;;;5.40;1.10;;;9.30;74.80;;;;;;4124233;28;20056;-80
2024/01/04 15:30:09;;;;;;;5.45;1.20;;;9.30;74.90;;;;;;4128561;28;20058;-79
2024/01/04 15:32:10;;;;;;;5.05;1.40;;;9.20;75.10;;;;;;4131274;28;20125;-78
2024/01/04 15:34:14;;;;;;;5.80;1.35;;;9.20;75.30;;;;;;4131205;28;20050;-79
2024/01/04 15:36:16;;;;;;;5.50;1.20;;;9.20;75.40;;;;;;4129189;28;20112;-79
2024/01/04 15:38:17;;;;;;;7.18;1.30;;;9.00;75.60;;;;;;4120892;28;20059;-76
2024/01/04 15:40:19;;;;;;;5.35;1.05;;;9.00;75.70;;;;;;4115216;28;20493;-76
2024/01/04 15:42:21;;;;;;;4.60;1.35;;;8.90;76.10;;;;;;4115137;28;20047;-79
2024/01/04 15:44:23;;;;;;;5.13;1.02;;;8.90;76.50;;;;;;4115008;28;20059;-78
2024/01/04 15:46:25;;;;;;;5.53;1.30;;;8.80;76.70;;;;;;4114787;28;20059;-78
2024/01/04 15:48:27;;;;;;;4.07;1.00;;;8.80;77.70;;;;;;4114749;28;20401;-79
2024/01/04 15:50:30;;;;;;;6.53;1.38;;;8.80;77.10;;;;;;4116108;28;20548;-78
2024/01/04 15:52:31;;;;;;;4.78;1.35;;;8.70;77.20;;;;;;4120704;28;20054;-80
2024/01/04 15:54:33;;;;;;;7.28;1.48;;;8.60;77.60;;;;;;4130945;28;20459;-79
2024/01/04 15:56:36;;;;;;;10.38;4.55;;;8.60;78.00;;;;;;4130651;28;20145;-79
2024/01/04 15:58:38;;;;;;;8.88;1.52;;;8.60;78.40;;;;;;4130967;28;20046;-80
2024/01/04 16:00:40;;;;;;;6.45;1.40;;;8.50;78.40;;;;;;4124814;28;20050;-79
2024/01/04 16:02:42;;;;;;;6.65;1.70;;;8.50;78.70;;;;;;4125173;28;20476;-78
2024/01/04 16:04:43;;;;;;;5.22;1.50;;;8.50;79.10;;;;;;4125299;28;20050;-79
2024/01/04 16:06:47;;;;;;;6.40;1.70;;;8.40;79.30;;;;;;4114928;28;20059;-80
2024/01/04 16:08:49;;;;;;;5.10;1.30;;;8.40;79.30;;;;;;4114720;28;20047;-80
2024/01/04 16:10:50;;;;;;;8.18;1.50;;;8.40;79.60;;;;;;4114691;28;20055;-80
2024/01/04 16:12:53;;;;;;;6.28;1.52;;;8.30;79.70;;;;;;4114476;28;20051;-80
2024/01/04 16:14:55;;;;;;;6.78;1.70;;;8.30;80.00;;;;;;4114589;28;20051;-80
2024/01/04 16:16:56;;;;;;;5.45;1.42;;;8.30;80.10;;;;;;4114495;28;20055;-80
2024/01/04 16:18:58;;;;;;;5.10;1.63;;;8.30;80.20;;;;;;4114544;28;20050;-79
2024/01/04 16:21:00;;;;;;;5.90;1.60;;;8.20;80.40;;;;;;4123593;28;20497;-80
2024/01/04 16:23:05;;;;;;;8.65;1.70;;;8.20;80.40;;;;;;4114153;28;20461;-80
2024/01/04 16:25:08;;;;;;;7.68;1.95;;;8.20;80.50;;;;;;4114519;28;20066;-77
2024/01/04 16:27:10;;;;;;;6.85;1.75;;;8.20;80.60;;;;;;4114499;28;20484;-79
2024/01/04 16:29:11;;;;;;;8.45;1.70;;;8.20;80.60;;;;;;4112633;28;20117;-79
2024/01/04 16:31:14;;;;;;;7.40;1.88;;;8.20;80.50;;;;;;4114327;28;20104;-80
2024/01/04 16:33:15;;;;;;;8.68;1.90;;;8.20;80.60;;;;;;4125301;28;20448;-81
2024/01/04 16:35:17;;;;;;;6.47;1.67;;;8.20;80.60;;;;;;4130521;28;20054;-81
2024/01/04 16:37:19;;;;;;;10.65;2.08;;;8.20;80.30;;;;;;4130601;28;20081;-79
2024/01/04 16:39:22;;;;;;;6.55;1.38;;;8.20;80.30;;;;;;4130433;28;20050;-77
2024/01/04 16:41:24;;;;;;;5.78;1.40;;;8.20;80.10;;;;;;4130432;28;20058;-80
2024/01/04 16:43:27;;;;;;;4.97;1.30;;;8.20;80.00;;;;;;4130471;28;20046;-76
2024/01/04 16:45:28;;;;;;;9.38;1.45;;;8.20;80.10;;;;;;4130471;28;20053;-78
2024/01/04 16:47:30;;;;;;;8.27;1.73;;;8.20;79.90;;;;;;4125520;28;20093;-78